Time;durP1;ratioP1;P1;durP2;ratioP2;P2;SDS_P1;SDS_P2;PMS_P1;PMS_P2;Temp;Humidity;BMP_temperature;BMP_pressure;BME280_temperature;BME280_humidity;BME280_pressure;Samples;Min_cycle;Max_cycle;Signal;HPM_P1;HPM_P2
2022/09/23 00:01:02;;;;;;;4.20;3.42;;;;;;;7.03;100.00;100526.77;1749266;82;20921;-37
2022/09/23 00:03:30;;;;;;;3.55;3.35;;;;;;;7.03;100.00;100527.61;1749413;82;20933;-37
2022/09/23 00:06:09;;;;;;;3.80;3.50;;;;;;;7.05;100.00;100527.63;1749353;82;22564;-37
2022/09/23 00:08:36;;;;;;;5.80;4.12;;;;;;;7.08;100.00;100523.75;1749446;82;20928;-37
2022/09/23 00:11:09;;;;;;;7.22;3.87;;;;;;;7.07;100.00;100529.76;1749467;82;21204;-37
2022/09/23 00:13:37;;;;;;;4.83;4.33;;;;;;;7.05;100.00;100527.17;1749159;81;20960;-37
2022/09/23 00:16:06;;;;;;;4.62;3.95;;;;;;;7.03;100.00;100527.61;1749359;81;20992;-37
2022/09/23 00:18:33;;;;;;;4.55;3.95;;;;;;;7.02;100.00;100525.06;1749079;82;20968;-37
2022/09/23 00:21:05;;;;;;;5.15;3.75;;;;;;;7.01;100.00;100532.36;1749514;82;20983;-37
2022/09/23 00:23:32;;;;;;;4.42;4.03;;;;;;;7.00;100.00;100525.05;1748191;81;21530;-37
2022/09/23 00:26:01;;;;;;;4.03;3.72;;;;;;;6.97;100.00;100528.08;1746757;81;20952;-37
2022/09/23 00:28:29;;;;;;;5.08;3.67;;;;;;;6.96;100.00;100526.37;1746634;81;20983;-37
2022/09/23 00:30:58;;;;;;;4.00;3.50;;;;;;;6.95;100.00;100529.80;1746578;81;20995;-37
2022/09/23 00:33:25;;;;;;;6.12;3.52;;;;;;;6.92;100.00;100525.92;1746549;82;20979;-37
2022/09/23 00:35:59;;;;;;;3.72;3.42;;;;;;;6.90;100.00;100525.50;1746748;82;22138;-37
2022/09/23 00:38:25;;;;;;;4.47;4.08;;;;;;;6.90;100.00;100522.08;1746844;82;20980;-37
2022/09/23 00:40:52;;;;;;;4.05;3.72;;;;;;;6.88;100.00;100515.64;1746814;82;20857;-37
2022/09/23 00:43:46;;;;;;;4.37;3.92;;;;;;;6.88;100.00;100520.78;1746723;82;20949;-37
2022/09/23 00:46:32;;;;;;;6.33;3.75;;;;;;;6.89;100.00;100519.09;1746472;82;20976;-37
2022/09/23 00:49:02;;;;;;;;;;;;;;;6.88;100.00;100514.80;1749650;80;21155;-37
2022/09/23 00:51:37;;;;;;;4.92;4.53;;;;;;;6.87;100.00;100507.49;1745177;81;20154;-37
2022/09/23 00:54:05;;;;;;;6.95;4.25;;;;;;;6.85;100.00;100508.37;1747275;82;21518;-37
2022/09/23 00:56:32;;;;;;;5.00;3.87;;;;;;;6.81;100.00;100507.93;1746807;80;20999;-37
2022/09/23 00:58:59;;;;;;;4.17;3.83;;;;;;;6.80;100.00;100508.37;1746731;82;20960;-37
2022/09/23 01:01:26;;;;;;;4.55;4.15;;;;;;;6.79;100.00;100502.80;1746902;82;21145;-37
2022/09/23 01:03:53;;;;;;;4.30;3.58;;;;;;;6.78;100.00;100501.51;1746803;82;21011;-37
2022/09/23 01:06:20;;;;;;;4.42;4.03;;;;;;;6.76;100.00;100501.08;1712042;82;21487;-37
2022/09/23 01:08:46;;;;;;;6.35;4.00;;;;;;;6.75;100.00;100506.25;1746717;82;20948;-37
2022/09/23 01:11:45;;;;;;;9.28;4.08;;;;;;;6.72;100.00;100508.38;1746742;82;21546;-37
2022/09/23 01:14:41;;;;;;;5.75;4.17;;;;;;;6.71;100.00;100512.27;1746835;82;21138;-37
2022/09/23 01:17:52;;;;;;;6.55;4.65;;;;;;;6.69;100.00;100511.37;1746586;82;21466;-37
2022/09/23 01:20:58;;;;;;;6.15;4.58;;;;;;;6.65;100.00;100513.12;1746734;82;20932;-37
2022/09/23 01:23:54;;;;;;;4.57;4.17;;;;;;;6.63;100.00;100512.27;1747557;80;20967;-37
2022/09/23 01:27:14;;;;;;;5.00;4.50;;;;;;;6.61;100.00;100517.40;1749581;82;21450;-37
2022/09/23 01:30:08;;;;;;;7.00;5.00;;;;;;;6.58;100.00;100513.99;1749418;82;22466;-37
2022/09/23 01:33:14;;;;;;;6.53;4.60;;;;;;;6.54;100.00;100505.41;1749705;82;20958;-37
2022/09/23 01:36:02;;;;;;;5.90;3.55;;;;;;;6.51;100.00;100503.27;1722153;82;20975;-37
2022/09/23 01:38:59;;;;;;;5.35;4.25;;;;;;;6.48;100.00;100502.86;1749401;82;20932;-37
2022/09/23 01:41:37;;;;;;;9.03;4.60;;;;;;;6.43;100.00;100495.13;1749337;82;20924;-37
2022/09/23 01:44:33;;;;;;;5.42;4.40;;;;;;;6.42;100.00;100493.83;1749222;82;21263;-37
2022/09/23 01:47:16;;;;;;;5.65;4.62;;;;;;;6.40;100.00;100492.98;1722042;82;20941;-37
2022/09/23 01:49:55;;;;;;;4.53;4.20;;;;;;;6.37;100.00;100495.55;1749433;80;20869;-37
2022/09/23 01:52:30;;;;;;;7.03;4.80;;;;;;;6.37;100.00;100499.00;1749440;82;20889;-37
2022/09/23 01:55:25;;;;;;;7.10;4.73;;;;;;;6.36;100.00;100497.70;1749608;82;20968;-37
2022/09/23 01:58:11;;;;;;;6.03;4.62;;;;;;;6.33;100.00;100493.44;1749333;82;22161;-37
2022/09/23 02:00:42;;;;;;;6.47;4.25;;;;;;;6.31;100.00;100485.70;1748718;81;21003;-37
2022/09/23 02:03:14;;;;;;;5.83;4.12;;;;;;;6.28;100.00;100488.70;1749388;82;21030;-37
2022/09/23 02:05:55;;;;;;;5.87;4.50;;;;;;;6.27;100.00;100495.98;1749546;82;21545;-37
2022/09/23 02:08:30;;;;;;;5.00;4.50;;;;;;;6.26;100.00;100495.14;1749208;81;21421;-37
2022/09/23 02:11:03;;;;;;;;;;;;;;;6.26;100.00;100496.42;1751954;82;22148;-37
2022/09/23 02:13:56;;;;;;;7.45;4.85;;;;;;;6.26;100.00;100500.70;1749358;81;21004;-37
2022/09/23 02:16:30;;;;;;;5.70;5.20;;;;;;;6.24;100.00;100503.70;1749004;81;20893;-37
2022/09/23 02:19:19;;;;;;;5.95;5.30;;;;;;;6.20;100.00;100497.72;1749424;82;21485;-37
2022/09/23 02:21:51;;;;;;;6.80;5.30;;;;;;;6.19;100.00;100507.58;1749408;81;20980;-37
2022/09/23 02:24:27;;;;;;;6.20;4.97;;;;;;;6.16;100.00;100507.55;1722816;82;21474;-37
2022/09/23 02:27:22;;;;;;;7.83;5.92;;;;;;;6.15;100.00;100510.97;1746958;82;21557;-37
2022/09/23 02:30:00;;;;;;;6.08;5.58;;;;;;;6.12;100.00;100518.27;1745513;82;21494;-37
2022/09/23 02:32:52;;;;;;;7.25;5.15;;;;;;;6.10;100.00;100512.69;1746687;82;21004;-37
2022/09/23 02:35:36;;;;;;;8.15;5.25;;;;;;;6.09;100.00;100519.97;1746627;82;21430;-37
2022/09/23 02:38:28;;;;;;;5.25;4.75;;;;;;;6.04;100.00;100523.81;1746748;80;21228;-38
2022/09/23 02:40:59;;;;;;;8.70;5.00;;;;;;;6.04;100.00;100523.81;1747000;81;21510;-37
2022/09/23 02:43:53;;;;;;;6.87;6.30;;;;;;;6.00;100.00;100524.22;1700040;82;21498;-37
2022/09/23 02:46:20;;;;;;;8.10;7.37;;;;;;;5.95;100.00;100522.08;1746514;80;20893;-38
2022/09/23 02:48:55;;;;;;;7.80;6.10;;;;;;;5.94;100.00;100530.64;1746750;82;20881;-37
2022/09/23 02:51:27;;;;;;;7.62;6.87;;;;;;;5.91;100.00;100526.75;1746771;82;21836;-37
2022/09/23 02:53:57;;;;;;;11.22;7.28;;;;;;;5.87;100.00;100528.89;1746591;82;21561;-38
2022/09/23 02:56:23;;;;;;;8.43;7.62;;;;;;;5.85;100.00;100531.89;1746665;82;21506;-36
2022/09/23 02:58:52;;;;;;;8.58;7.75;;;;;;;5.83;100.00;100530.61;1746610;82;20865;-36
2022/09/23 03:01:47;;;;;;;10.90;8.30;;;;;;;5.81;100.00;100518.20;1746748;82;20979;-36
2022/09/23 03:04:41;;;;;;;7.90;6.60;;;;;;;5.81;100.00;100518.20;1746436;82;21082;-36
2022/09/23 03:07:31;;;;;;;7.95;7.12;;;;;;;5.79;100.00;100516.47;1746649;82;20960;-37
2022/09/23 03:10:04;;;;;;;8.33;7.45;;;;;;;5.77;100.00;100511.75;1746608;82;20991;-37
2022/09/23 03:12:56;;;;;;;15.10;10.95;;;;;;;5.69;100.00;100512.60;1746249;80;20917;-37
2022/09/23 03:15:37;;;;;;;12.68;10.25;;;;;;;5.69;100.00;100512.60;1746400;82;21502;-37
2022/09/23 03:18:12;;;;;;;13.53;10.40;;;;;;;5.66;100.00;100518.98;1732294;82;21007;-37
2022/09/23 03:20:49;;;;;;;10.10;9.10;;;;;;;5.62;100.00;100510.84;1746727;82;20980;-37
2022/09/23 03:23:19;;;;;;;12.03;10.80;;;;;;;5.59;100.00;100510.84;1746461;82;20975;-37
2022/09/23 03:25:47;;;;;;;17.35;11.65;;;;;;;5.54;100.00;100508.25;1749168;81;21016;-37
2022/09/23 03:28:16;;;;;;;12.10;10.88;;;;;;;5.50;100.00;100498.83;1722148;82;20979;-37
2022/09/23 03:30:42;;;;;;;15.45;10.72;;;;;;;5.44;100.00;100499.69;1749176;82;21037;-37
2022/09/23 03:33:11;;;;;;;13.85;11.12;;;;;;;5.46;100.00;100502.24;1721984;82;20917;-37
2022/09/23 03:39:46;;;;;;;16.30;13.32;;;;;;;5.51;100.00;100494.56;1816126;79;22462;-36
2022/09/23 03:42:24;;;;;;;20.68;14.63;;;;;;;5.42;100.00;100502.64;1788254;80;20955;-37
2022/09/23 03:44:55;;;;;;;14.18;12.75;;;;;;;5.40;100.00;100509.93;1758488;80;21207;-38
2022/09/23 03:47:23;;;;;;;13.62;11.97;;;;;;;5.40;100.00;100508.20;1789082;80;21033;-38
2022/09/23 03:49:52;;;;;;;16.57;13.58;;;;;;;5.39;100.00;100514.19;1789111;80;20967;-36
2022/09/23 03:52:22;;;;;;;15.50;13.43;;;;;;;5.39;100.00;100513.34;1758496;80;20936;-37
2022/09/23 03:54:50;;;;;;;23.45;13.50;;;;;;;5.39;100.00;100513.34;1789032;80;20925;-37
2022/09/23 03:57:17;;;;;;;15.68;12.10;;;;;;;5.42;100.00;100518.05;1789098;80;21045;-37
2022/09/23 03:59:43;;;;;;;23.60;12.60;;;;;;;5.48;100.00;100521.52;1789203;80;21018;-37
2022/09/23 04:02:10;;;;;;;18.98;12.43;;;;;;;5.48;100.00;100521.52;1789294;80;20924;-37
2022/09/23 04:04:39;;;;;;;19.15;12.93;;;;;;;5.50;100.00;100521.94;1789244;80;20936;-37
2022/09/23 04:07:05;;;;;;;15.53;13.10;;;;;;;5.55;100.00;100525.37;1758500;80;20927;-37
2022/09/23 04:09:32;;;;;;;18.40;12.30;;;;;;;5.60;100.00;100530.53;1789227;80;21139;-37
2022/09/23 04:11:59;;;;;;;13.78;11.70;;;;;;;5.64;100.00;100527.12;1758604;80;20888;-37
2022/09/23 04:14:26;;;;;;;18.48;12.88;;;;;;;5.72;100.00;100529.30;1789152;80;20975;-37
2022/09/23 04:16:54;;;;;;;14.03;12.55;;;;;;;5.81;100.00;100534.02;1789385;80;21434;-37
2022/09/23 04:19:21;;;;;;;14.60;12.25;;;;;;;5.89;100.00;100529.34;1789308;80;20955;-37
2022/09/23 04:21:48;;;;;;;12.70;11.43;;;;;;;5.96;100.00;100524.20;1789351;80;21224;-37
2022/09/23 04:24:16;;;;;;;13.18;11.73;;;;;;;6.00;100.00;100519.08;1789265;80;20873;-37
2022/09/23 04:26:43;;;;;;;13.88;10.98;;;;;;;6.07;100.00;100520.40;1758698;80;20900;-37
2022/09/23 04:29:10;;;;;;;14.80;11.40;;;;;;;6.11;100.00;100519.13;1789142;80;20904;-37
2022/09/23 04:31:37;;;;;;;12.63;10.80;;;;;;;6.15;100.00;100522.13;1789461;80;21024;-37
2022/09/23 04:34:03;;;;;;;13.95;11.18;;;;;;;6.21;100.00;100525.14;1758803;80;21136;-37
2022/09/23 04:36:31;;;;;;;13.43;11.00;;;;;;;6.28;100.00;100524.69;1788970;80;20986;-37
2022/09/23 04:38:58;;;;;;;16.00;11.18;;;;;;;6.36;100.00;100515.70;1786051;80;21472;-37
2022/09/23 04:41:24;;;;;;;14.00;11.88;;;;;;;6.43;100.00;100513.55;1784023;80;20905;-37
2022/09/23 04:43:51;;;;;;;14.38;11.53;;;;;;;6.50;100.00;100516.56;1783923;80;20928;-37
2022/09/23 04:46:18;;;;;;;15.18;11.48;;;;;;;6.58;100.00;100516.56;1783941;80;21137;-37
2022/09/23 04:48:45;;;;;;;14.13;11.28;;;;;;;6.65;100.00;100521.25;1753045;80;20932;-37
2022/09/23 04:51:14;;;;;;;13.85;11.60;;;;;;;6.71;100.00;100519.98;1783383;80;21510;-37
2022/09/23 04:53:43;;;;;;;11.55;10.28;;;;;;;6.79;100.00;100518.24;1783325;80;20991;-37
2022/09/23 04:56:26;;;;;;;18.70;10.35;;;;;;;6.87;100.00;100513.92;1783191;80;21019;-37
2022/09/23 04:58:56;;;;;;;14.93;9.90;;;;;;;6.94;100.00;100510.92;1752780;80;21303;-38
2022/09/23 05:01:25;;;;;;;14.80;10.55;;;;;;;7.02;100.00;100506.59;1783271;80;20873;-36
2022/09/23 05:03:55;;;;;;;12.03;9.48;;;;;;;7.10;100.00;100508.31;1783395;80;20975;-36
2022/09/23 05:06:21;;;;;;;13.60;10.10;;;;;;;7.19;100.00;100508.27;1783218;80;21558;-36
2022/09/23 05:08:51;;;;;;;13.90;10.90;;;;;;;7.26;100.00;100497.52;1783290;80;20897;-36
2022/09/23 05:11:18;;;;;;;13.28;10.00;;;;;;;7.32;100.00;100505.21;1783334;80;21140;-36
2022/09/23 05:13:47;;;;;;;14.13;10.90;;;;;;;7.40;100.00;100497.02;1783314;80;20948;-36
2022/09/23 05:16:14;;;;;;;14.05;11.05;;;;;;;7.46;100.00;100492.27;1783108;80;20964;-37
2022/09/23 05:18:41;;;;;;;17.65;12.35;;;;;;;7.52;100.00;100488.37;1783280;80;20936;-37
2022/09/23 05:21:13;;;;;;;20.85;11.15;;;;;;;7.60;100.00;100492.20;1783433;80;20873;-37
2022/09/23 05:23:40;;;;;;;15.25;11.90;;;;;;;7.65;100.00;100485.30;1783559;80;21096;-37
2022/09/23 05:26:11;;;;;;;17.20;11.83;;;;;;;7.71;100.00;100482.70;1752555;80;21395;-37
2022/09/23 05:28:38;;;;;;;14.58;11.33;;;;;;;7.78;100.00;100483.95;1783341;80;21002;-37
2022/09/23 05:31:15;;;;;;;19.57;12.03;;;;;;;7.87;100.00;100492.89;1783342;80;21533;-37
2022/09/23 05:33:46;;;;;;;12.50;11.20;;;;;;;7.95;100.00;100481.25;1783213;80;20928;-37
2022/09/23 05:36:12;;;;;;;20.97;10.70;;;;;;;8.05;100.00;100481.17;1752735;80;22031;-37
2022/09/23 05:38:39;;;;;;;15.15;10.75;;;;;;;8.14;100.00;100480.25;1780361;80;20973;-37
2022/09/23 05:41:08;;;;;;;13.25;9.85;;;;;;;8.25;100.00;100481.45;1775257;80;20989;-37
2022/09/23 05:43:35;;;;;;;10.95;9.85;;;;;;;8.33;100.00;100483.52;1774947;80;21537;-37
2022/09/23 05:46:14;;;;;;;16.35;10.78;;;;;;;8.41;100.00;100483.46;1775073;80;20873;-38
2022/09/23 05:48:42;;;;;;;13.05;10.40;;;;;;;8.53;100.00;100481.23;1774977;80;21490;-37
2022/09/23 05:51:20;;;;;;;19.87;10.20;;;;;;;8.65;100.00;100489.30;1775020;80;20952;-37
2022/09/23 05:53:47;;;;;;;16.73;10.32;;;;;;;8.81;100.00;100489.98;1775095;80;20916;-38
2022/09/23 05:56:16;;;;;;;15.85;9.63;;;;;;;8.97;100.00;100491.97;1774790;80;20944;-38
2022/09/23 05:58:43;;;;;;;14.20;9.30;;;;;;;9.10;100.00;100496.55;1774898;80;20956;-38
2022/09/23 06:01:24;;;;;;;11.55;8.85;;;;;;;9.25;100.00;100501.97;1775002;80;22133;-38
2022/09/23 06:03:48;;;;;;;10.48;8.68;;;;;;;9.37;100.00;100506.13;1773721;80;20948;-39
2022/09/23 06:06:16;;;;;;;13.60;9.18;;;;;;;9.47;100.00;100499.98;1775060;80;20971;-36
2022/09/23 06:08:44;;;;;;;15.43;9.18;;;;;;;9.59;100.00;100510.56;1774978;80;20901;-36
2022/09/23 06:11:12;;;;;;;15.80;8.73;;;;;;;9.71;100.00;100513.88;1774998;80;20972;-36
2022/09/23 06:13:39;;;;;;;13.05;9.25;;;;;;;9.82;100.00;100504.68;1775032;80;21240;-36
2022/09/23 06:16:12;;;;;;;14.50;9.30;;;;;;;9.97;100.00;100503.14;1774740;80;20932;-36
2022/09/23 06:18:44;;;;;;;12.53;9.00;;;;;;;10.12;100.00;100508.55;1774712;80;21478;-36
2022/09/23 06:21:13;;;;;;;10.05;8.43;;;;;;;10.30;100.00;100508.69;1774905;80;20865;-37
2022/09/23 06:23:40;;;;;;;10.70;8.73;;;;;;;10.43;100.00;100495.13;1775338;80;20984;-36
2022/09/23 06:26:08;;;;;;;12.13;8.03;;;;;;;10.48;100.00;100498.91;1775061;80;21758;-36
2022/09/23 06:28:37;;;;;;;10.95;8.23;;;;;;;10.51;100.00;100498.89;1774774;80;21494;-36
2022/09/23 06:31:12;;;;;;;10.35;8.30;;;;;;;10.62;100.00;100500.83;1775357;80;20957;-36
2022/09/23 06:33:39;;;;;;;13.03;7.53;;;;;;;10.73;100.00;100492.00;1754268;80;20944;-36
2022/09/23 06:36:06;;;;;;;10.75;7.90;;;;;;;10.92;100.00;100492.08;1774848;80;21451;-37
2022/09/23 06:38:34;;;;;;;11.25;7.12;;;;;;;11.08;100.00;100489.20;1776543;80;21457;-37
2022/09/23 06:41:03;;;;;;;9.80;7.28;;;;;;;11.33;100.00;100495.17;1783130;80;21493;-38
2022/09/23 06:43:30;;;;;;;7.37;6.67;;;;;;;11.48;100.00;100493.53;1783557;80;21557;-38
2022/09/23 06:46:02;;;;;;;10.58;7.95;;;;;;;11.65;100.00;100489.72;1783128;80;20991;-38
2022/09/23 06:48:30;;;;;;;12.13;9.10;;;;;;;11.88;100.00;100494.84;1783141;80;21455;-39
2022/09/23 06:51:01;;;;;;;26.27;14.18;;;;;;;11.98;100.00;100495.48;1783170;80;21005;-39
2022/09/23 06:53:31;;;;;;;9.45;7.40;;;;;;;12.09;100.00;100500.44;1783347;80;20920;-38
2022/09/23 06:56:06;;;;;;;13.30;7.72;;;;;;;12.18;100.00;100499.78;1783331;80;20909;-39
2022/09/23 06:58:34;;;;;;;107.32;55.28;;;;;;;12.25;100.00;100495.73;1778310;80;20939;-39
2022/09/23 07:01:12;;;;;;;47.93;25.25;;;;;;;12.41;100.00;100496.19;1783319;80;20892;-39
2022/09/23 07:03:38;;;;;;;;;;;;;;;12.68;100.00;100509.34;1786176;80;21124;-39
2022/09/23 07:06:06;;;;;;;11.65;8.93;;;;;;;12.90;100.00;100499.26;1783324;80;20080;-39
2022/09/23 07:08:34;;;;;;;16.50;11.63;;;;;;;13.02;100.00;100509.30;1752790;80;21023;-39
2022/09/23 07:11:05;;;;;;;17.32;10.38;;;;;;;13.07;100.00;100501.38;1783505;80;21647;-39
2022/09/23 07:13:32;;;;;;;13.65;7.83;;;;;;;13.15;100.00;100509.80;1783078;80;21002;-39
2022/09/23 07:16:00;;;;;;;8.80;6.65;;;;;;;13.18;100.00;100507.11;1783326;80;21100;-39
2022/09/23 07:18:29;;;;;;;12.30;6.35;;;;;;;13.20;100.00;100509.22;1783202;80;21589;-39
2022/09/23 07:20:59;;;;;;;9.78;6.40;;;;;;;13.20;100.00;100506.62;1783277;80;20924;-39
2022/09/23 07:23:25;;;;;;;8.88;6.12;;;;;;;13.16;100.00;100502.88;1783313;80;21564;-39
2022/09/23 07:25:52;;;;;;;11.80;7.17;;;;;;;13.09;100.00;100507.39;1783321;80;20972;-39
2022/09/23 07:28:19;;;;;;;10.35;7.50;;;;;;;13.11;100.00;100501.69;1783181;80;21083;-39
2022/09/23 07:30:46;;;;;;;11.12;6.90;;;;;;;13.23;100.00;100507.83;1782911;80;21482;-39
2022/09/23 07:33:13;;;;;;;15.25;7.83;;;;;;;13.42;100.00;100494.30;1783057;80;21607;-39
2022/09/23 07:35:40;;;;;;;10.38;6.97;;;;;;;13.70;100.00;100492.19;1782949;80;20936;-39
2022/09/23 07:38:09;;;;;;;14.98;6.78;;;;;;;13.95;100.00;100487.52;1783250;80;20924;-39
2022/09/23 07:40:38;;;;;;;10.68;7.87;;;;;;;14.12;100.00;100488.73;1775719;80;21097;-39
2022/09/23 07:43:07;;;;;;;18.52;7.47;;;;;;;14.38;100.00;100485.25;1774982;80;20964;-39
2022/09/23 07:45:34;;;;;;;12.55;7.45;;;;;;;14.60;97.90;100495.80;1774940;80;20893;-39
2022/09/23 07:48:02;;;;;;;10.65;7.28;;;;;;;14.70;93.82;100482.01;1774942;80;20979;-39
2022/09/23 07:50:30;;;;;;;9.00;6.37;;;;;;;14.67;94.80;100487.33;1753671;80;21422;-39
2022/09/23 07:52:56;;;;;;;7.28;6.00;;;;;;;14.67;93.29;100491.23;1775018;80;21826;-39
2022/09/23 07:55:23;;;;;;;6.90;6.20;;;;;;;14.64;92.76;100492.18;1774826;80;20979;-39
2022/09/23 07:57:50;;;;;;;11.90;6.67;;;;;;;14.46;91.71;100489.77;1775002;80;20893;-39
2022/09/23 08:00:18;;;;;;;9.65;7.55;;;;;;;14.34;92.97;100488.42;1774980;80;21604;-37
2022/09/23 08:02:45;;;;;;;8.85;6.92;;;;;;;14.22;93.15;100487.52;1775087;80;21430;-40
2022/09/23 08:05:11;;;;;;;10.05;7.28;;;;;;;14.17;94.84;100487.69;1775066;80;21100;-37
2022/09/23 08:07:40;;;;;;;13.70;6.92;;;;;;;14.07;95.38;100485.84;1774920;80;21434;-37
2022/09/23 08:10:07;;;;;;;9.75;7.03;;;;;;;14.01;96.19;100484.71;1774924;80;20968;-37
2022/09/23 08:12:34;;;;;;;8.93;6.60;;;;;;;13.89;96.45;100483.39;1774884;80;20944;-37
2022/09/23 08:15:01;;;;;;;7.40;6.70;;;;;;;13.73;96.68;100477.78;1774746;80;21483;-38
2022/09/23 08:17:28;;;;;;;9.83;5.97;;;;;;;13.79;98.35;100476.75;1775017;80;21141;-37
2022/09/23 08:19:55;;;;;;;7.10;6.05;;;;;;;13.93;98.13;100473.71;1774834;80;20889;-37
2022/09/23 08:22:21;;;;;;;10.80;5.65;;;;;;;13.97;97.82;100473.17;1775108;80;21541;-37
2022/09/23 08:24:48;;;;;;;5.40;4.85;;;;;;;13.97;98.21;100472.70;1774986;80;21406;-38
2022/09/23 08:27:15;;;;;;;11.10;6.00;;;;;;;14.00;95.54;100471.77;1775121;80;20912;-37
2022/09/23 08:29:42;;;;;;;7.03;4.90;;;;;;;13.97;95.06;100474.00;1775207;80;21525;-37
2022/09/23 08:32:08;;;;;;;5.80;5.17;;;;;;;13.95;95.22;100470.61;1775176;80;20976;-37
2022/09/23 08:34:35;;;;;;;8.20;5.12;;;;;;;13.91;96.20;100472.91;1775142;80;20933;-37
2022/09/23 08:37:03;;;;;;;9.75;5.80;;;;;;;13.88;96.79;100469.95;1775028;80;20905;-37
2022/09/23 08:39:30;;;;;;;8.93;6.10;;;;;;;13.82;97.37;100464.11;1775165;80;21554;-38
2022/09/23 08:42:08;;;;;;;7.67;5.87;;;;;;;13.83;96.26;100464.51;1775038;80;21851;-37
2022/09/23 08:44:59;;;;;;;9.45;5.62;;;;;;;13.76;97.18;100473.78;1775133;80;20921;-38
2022/09/23 08:47:47;;;;;;;11.25;6.30;;;;;;;13.80;96.54;100471.95;1774942;80;20979;-39
2022/09/23 08:50:25;;;;;;;8.03;5.45;;;;;;;13.86;96.55;100474.81;1774387;80;20924;-40
2022/09/23 08:53:01;;;;;;;7.20;5.12;;;;;;;13.92;96.53;100470.70;1775538;80;21492;-37
2022/09/23 08:55:46;;;;;;;10.00;5.72;;;;;;;13.95;95.84;100468.00;1775060;80;21239;-37
2022/09/23 08:58:34;;;;;;;10.35;6.15;;;;;;;13.90;95.89;100467.31;1747252;80;20936;-37
2022/09/23 09:01:24;;;;;;;10.20;6.50;;;;;;;13.91;96.68;100467.70;1775045;80;20909;-37
2022/09/23 09:03:53;;;;;;;5.78;5.10;;;;;;;14.08;95.78;100462.81;1775180;80;21395;-37
2022/09/23 09:06:32;;;;;;;6.60;5.90;;;;;;;14.17;95.77;100464.70;1774965;80;21042;-37
2022/09/23 09:09:02;;;;;;;7.45;5.62;;;;;;;14.21;96.96;100471.06;1775059;80;21483;-37
2022/09/23 09:11:39;;;;;;;8.00;5.35;;;;;;;14.04;94.27;100472.06;1774958;80;21011;-37
2022/09/23 09:14:27;;;;;;;6.58;5.30;;;;;;;13.93;96.95;100471.97;1775353;80;20943;-37
2022/09/23 09:17:01;;;;;;;5.60;5.05;;;;;;;13.96;96.24;100480.11;1774865;80;20984;-37
2022/09/23 09:19:56;;;;;;;6.12;5.00;;;;;;;13.89;96.02;100472.98;1775045;80;20921;-37
2022/09/23 09:22:50;;;;;;;6.42;5.40;;;;;;;14.03;97.39;100473.83;1775315;80;21106;-37
2022/09/23 09:25:28;;;;;;;5.65;4.75;;;;;;;14.19;96.62;100481.12;1774815;80;20978;-37
2022/09/23 09:27:55;;;;;;;7.60;4.10;;;;;;;14.05;94.31;100469.86;1774511;80;20967;-37
2022/09/23 09:30:24;;;;;;;7.03;4.15;;;;;;;13.87;95.62;100483.02;1751441;80;21533;-37
2022/09/23 09:33:03;;;;;;;4.65;4.25;;;;;;;13.85;96.61;100477.02;1775139;80;20920;-37
2022/09/23 09:35:59;;;;;;;5.95;3.87;;;;;;;13.92;97.37;100475.91;1774921;80;21324;-37
2022/09/23 09:38:26;;;;;;;4.90;4.12;;;;;;;13.98;97.60;100479.61;1774937;80;20929;-37
2022/09/23 09:40:54;;;;;;;8.35;4.22;;;;;;;14.14;97.82;100467.41;1780960;80;20991;-37
2022/09/23 09:43:24;;;;;;;4.75;3.95;;;;;;;14.26;97.71;100474.80;1728535;80;21537;-37
2022/09/23 09:46:12;;;;;;;5.05;4.25;;;;;;;14.23;97.07;100467.09;1783199;80;20980;-37
2022/09/23 09:48:43;;;;;;;4.12;3.37;;;;;;;14.21;97.84;100462.39;1756075;80;21275;-37
2022/09/23 09:51:22;;;;;;;5.28;3.42;;;;;;;14.07;96.56;100465.02;1782941;80;21466;-37
2022/09/23 09:53:54;;;;;;;3.47;3.22;;;;;;;13.92;96.89;100474.17;1783387;80;20928;-37
2022/09/23 09:56:26;;;;;;;3.60;3.30;;;;;;;13.70;97.39;100476.59;1783250;80;20939;-37
2022/09/23 09:59:09;;;;;;;6.60;2.58;;;;;;;13.57;95.39;100478.72;1778765;80;21262;-37
2022/09/23 10:01:37;;;;;;;2.80;2.60;;;;;;;13.45;97.65;100481.70;1783709;80;21145;-37
2022/09/23 10:04:07;;;;;;;2.90;2.70;;;;;;;13.52;98.18;100479.77;1783350;80;21470;-37
2022/09/23 10:06:34;;;;;;;3.95;3.12;;;;;;;13.46;97.92;100475.60;1780739;80;20944;-37
2022/09/23 10:09:15;;;;;;;3.92;3.15;;;;;;;13.43;99.21;100476.53;1783299;80;20929;-37
2022/09/23 10:11:42;;;;;;;3.45;3.25;;;;;;;13.49;96.90;100476.80;1783044;80;20944;-37
2022/09/23 10:14:18;;;;;;;5.10;3.25;;;;;;;13.53;97.26;100472.38;1727902;80;21331;-37
2022/09/23 10:16:47;;;;;;;4.42;3.75;;;;;;;13.61;97.07;100472.98;1783314;80;20920;-37
2022/09/23 10:19:25;;;;;;;4.65;3.87;;;;;;;13.63;95.37;100477.69;1783259;80;20983;-37
2022/09/23 10:21:59;;;;;;;4.53;4.22;;;;;;;13.67;96.43;100475.38;1782167;80;20991;-37
2022/09/23 10:24:29;;;;;;;4.30;3.80;;;;;;;13.62;93.90;100479.88;1783303;80;20960;-37
2022/09/23 10:27:10;;;;;;;8.70;4.30;;;;;;;13.52;95.83;100476.71;1783229;80;21144;-37
2022/09/23 10:29:47;;;;;;;5.17;3.95;;;;;;;13.53;96.00;100475.81;1783478;80;21011;-37
2022/09/23 10:32:36;;;;;;;8.18;4.62;;;;;;;13.53;93.54;100474.51;1783292;80;21026;-37
2022/09/23 10:35:13;;;;;;;4.90;4.00;;;;;;;13.42;92.71;100478.70;1783309;80;20987;-37
2022/09/23 10:37:53;;;;;;;8.90;5.07;;;;;;;13.33;92.02;100479.81;1783643;80;21233;-37
2022/09/23 10:46:40;;;;;;;9.85;6.28;;;;;;;13.12;94.54;100483.04;1724042;80;20950;-37
2022/09/23 10:49:29;;;;;;;6.28;5.67;;;;;;;13.04;96.27;100484.58;1775116;80;28618;-37
2022/09/23 10:52:35;;;;;;;6.62;5.95;;;;;;;13.02;97.87;100486.38;1774987;80;20987;-37
2022/09/23 10:55:29;;;;;;;7.30;5.83;;;;;;;13.00;99.26;100485.53;1773664;80;21860;-37
2022/09/23 10:58:23;;;;;;;6.03;5.53;;;;;;;12.96;99.13;100482.19;1774794;80;20873;-37
2022/09/23 11:01:18;;;;;;;9.40;4.92;;;;;;;12.90;99.60;100478.47;1775008;80;20905;-37
2022/09/23 11:04:06;;;;;;;7.60;5.00;;;;;;;12.88;100.00;100479.80;1752923;80;20948;-37
2022/09/23 11:07:10;;;;;;;4.87;4.47;;;;;;;12.85;99.07;100472.09;1774732;80;20981;-37
2022/09/23 11:09:45;;;;;;;6.20;3.95;;;;;;;12.82;100.00;100478.67;1774970;80;21249;-37
2022/09/23 11:12:41;;;;;;;4.45;4.05;;;;;;;12.84;100.00;100477.31;1774856;80;21514;-37
2022/09/23 11:15:39;;;;;;;5.78;4.03;;;;;;;12.79;100.00;100473.58;1774791;80;24422;-37
2022/09/23 11:18:20;;;;;;;4.78;4.45;;;;;;;12.75;100.00;100473.22;1775028;80;20944;-37
2022/09/23 11:21:19;;;;;;;5.70;4.78;;;;;;;12.75;100.00;100476.69;1773830;80;20925;-37
2022/09/23 11:24:31;;;;;;;5.47;4.97;;;;;;;12.70;100.00;100469.47;1774705;80;21258;-37
2022/09/23 11:27:24;;;;;;;5.53;5.00;;;;;;;12.65;100.00;100468.29;1774665;80;20967;-37
2022/09/23 11:30:02;;;;;;;7.90;5.10;;;;;;;12.62;100.00;100461.89;1769702;80;20996;-38
2022/09/23 11:33:03;;;;;;;5.33;4.92;;;;;;;12.65;100.00;100464.39;1775004;80;20996;-38
2022/09/23 11:35:50;;;;;;;5.62;4.87;;;;;;;12.66;100.00;100466.56;1774138;80;20853;-38
2022/09/23 11:38:26;;;;;;;5.60;5.10;;;;;;;12.68;100.00;100462.61;1774871;80;21111;-38
2022/09/23 11:41:13;;;;;;;5.15;4.53;;;;;;;12.71;100.00;100462.52;1778636;80;20909;-38
2022/09/23 11:43:39;;;;;;;6.95;4.90;;;;;;;12.76;100.00;100461.97;1783200;80;20945;-38
2022/09/23 11:46:27;;;;;;;7.08;4.60;;;;;;;12.83;100.00;100459.59;1783178;80;21065;-38
2022/09/23 11:49:20;;;;;;;7.70;4.10;;;;;;;12.97;100.00;100460.52;1738215;80;20975;-38
2022/09/23 11:52:01;;;;;;;6.50;3.20;;;;;;;13.16;100.00;100462.59;1783201;80;21288;-38
2022/09/23 11:54:35;;;;;;;5.85;2.85;;;;;;;13.33;100.00;100464.69;1781938;80;21714;-38
2022/09/23 11:57:04;;;;;;;2.65;2.45;;;;;;;13.36;98.94;100461.98;1783365;80;21481;-38
2022/09/23 11:59:46;;;;;;;2.20;2.00;;;;;;;13.34;95.79;100454.23;1783428;80;21599;-38
2022/09/23 12:02:52;;;;;;;2.35;2.15;;;;;;;13.35;95.49;100461.59;1783421;80;21016;-37
2022/09/23 12:05:22;;;;;;;2.27;2.03;;;;;;;13.41;95.78;100462.70;1752949;80;21127;-38